Laredo International, TX

6:23 PM CST en Enero 29, 2015 (GMT -0600)
Zapata | Change Station
CLOSE
Current Station
Aeropuerto
Location: Zapata,
Altura: 423 ft
Estaciones meteorológicas cercanas

Alt 423 ft 26.97 °N, 99.25 °W | Updated 8 minutes ago

Despejado
Despejado
75 ° F
Sensación térmica 75 ° F
N
6
Viento Variable Viento desde ESE

Hoy
Alta -- | Baja -- ° F
--% Posibilidad de precipitaciones
Ayer
Alta -- | Baja -- ° F
Precip. -- pul
7:25 AM 6:16 PM
Gibosa creciente, 78% visible
Presión 30.16 pul
Visibilidad 10.0 Millas
Nubes Despejado
Punto de rocío 53 ° F
Humedad 47%
Precipitaciones 0.00 pul
Espesor de la nieve No disponible.
UV 0 de una escala de 12
Polen 8.20 de una escala de 12
Calidad del aire No disponible.
Flu Activity No disponible.
METAR KAPY 300015Z AUTO 12005KT 10SM CLR 23/11 A3016 RMK AO2 T02370118

More Conditions Fewer Conditions

Presión 30.16 pul
Visibilidad 10.0 Millas
Nubes Despejado
Punto de rocío 53 ° F
Humedad 47%
Precipitaciones 0.00 pul
Espesor de la nieve No disponible.
UV 0 de una escala de 12
Polen 8.20 de una escala de 12
Calidad del aire No disponible.
Flu Activity No disponible.
METAR KAPY 300015Z AUTO 12005KT 10SM CLR 23/11 A3016 RMK AO2 T02370118

More Conditions Fewer Conditions

10-Day Weather Forecast

Almanac

Astronomía

Jan. 29, 2015 Salida Puesta
Hora real
Crepúsculo civil
Crepúsculo náutico
Crepúsculo astronómico
Luna
Horas de luz
Horas de luz
Tomorrow will be .
, % of the Moon is Illuminated

Extremos de hoy

Máximos del estado Bajos del estado

Community

WunderPhotos

Upload Photos

1,791,651 ¡fotos cargadas!

WunderBlogs® & News

Nearby

Calidad del aire

  Calidad del aire Índice AQ Contaminante
Not available.

Grosos de nieve

Estación Profundido Altura

Actividad de terremotos

Ciudad Distance Mag. Tiempo y dato
Magnitud mínima muestra es 2,5.

Temperaturas de aguas costeras

Lugar Temperatura

Estaciones meteorológicas cercanas